Time;durP1;ratioP1;P1;durP2;ratioP2;P2;SDS_P1;SDS_P2;PMS_P1;PMS_P2;Temp;Humidity;BMP_temperature;BMP_pressure;BME280_temperature;BME280_humidity;BME280_pressure;Samples;Min_cycle;Max_cycle;Signal;HPM_P1;HPM_P2
2023/04/15 00:00:25;;;;;;;0.50;0.50;;;9.00;68.00;;;;;;5136224;27;20074;-72
2023/04/15 00:02:51;;;;;;;0.30;0.30;;;9.10;68.10;;;;;;5154606;27;20461;-72
2023/04/15 00:05:17;;;;;;;0.35;0.30;;;9.10;68.20;;;;;;5154731;27;20087;-72
2023/04/15 00:07:44;;;;;;;0.50;0.50;;;9.00;68.20;;;;;;5154526;27;20474;-72
2023/04/15 00:10:10;;;;;;;0.50;0.50;;;9.00;68.20;;;;;;5154959;27;20038;-72
2023/04/15 00:12:36;;;;;;;0.50;0.50;;;8.90;68.30;;;;;;5135753;27;20038;-72
2023/04/15 00:15:01;;;;;;;0.57;0.50;;;8.90;68.40;;;;;;5154316;27;20046;-72
2023/04/15 00:17:27;;;;;;;1.70;0.60;;;8.90;68.40;;;;;;5154167;27;20031;-72
2023/04/15 00:19:53;;;;;;;0.55;0.55;;;8.90;68.40;;;;;;5154252;27;20045;-72
2023/04/15 00:22:19;;;;;;;1.98;0.60;;;8.90;68.40;;;;;;5154230;27;20034;-73
2023/04/15 00:24:44;;;;;;;0.43;0.40;;;8.90;68.40;;;;;;5135802;27;20073;-72
2023/04/15 00:27:10;;;;;;;0.60;0.50;;;9.00;68.50;;;;;;5154108;27;20079;-72
2023/04/15 00:29:36;;;;;;;0.82;0.50;;;8.90;68.50;;;;;;5154222;27;20049;-72
2023/04/15 00:32:01;;;;;;;0.80;0.60;;;8.90;68.50;;;;;;5153916;27;20043;-72
2023/04/15 00:34:27;;;;;;;0.75;0.65;;;9.00;68.50;;;;;;5154476;27;20049;-72
2023/04/15 00:36:53;;;;;;;1.17;0.80;;;8.90;68.50;;;;;;5154534;27;20056;-72
2023/04/15 00:39:19;;;;;;;0.40;0.40;;;8.90;68.50;;;;;;5154566;27;20031;-72
2023/04/15 00:41:45;;;;;;;1.27;0.52;;;8.90;68.60;;;;;;5135588;27;20095;-72
2023/04/15 00:44:11;;;;;;;0.63;0.60;;;8.90;68.60;;;;;;5154598;27;20043;-72
2023/04/15 00:46:38;;;;;;;0.45;0.45;;;8.90;68.50;;;;;;5153906;27;20060;-72
2023/04/15 00:49:05;;;;;;;0.52;0.50;;;8.90;68.50;;;;;;5153912;27;20041;-72
2023/04/15 00:51:32;;;;;;;0.77;0.68;;;8.90;68.50;;;;;;5153858;27;20035;-72
2023/04/15 00:53:59;;;;;;;0.88;0.75;;;8.90;68.60;;;;;;5135370;27;20043;-72
2023/04/15 00:56:27;;;;;;;0.93;0.60;;;8.90;68.60;;;;;;5153839;27;20093;-72
2023/04/15 00:58:53;;;;;;;0.45;0.45;;;8.80;68.70;;;;;;5135208;27;20470;-72
2023/04/15 01:01:21;;;;;;;0.80;0.65;;;8.80;68.70;;;;;;5117919;27;20046;-72
2023/04/15 01:03:49;;;;;;;0.38;0.38;;;8.80;68.90;;;;;;5153584;27;20042;-72
2023/04/15 01:06:15;;;;;;;0.63;0.60;;;8.70;68.90;;;;;;5153604;27;20049;-72
2023/04/15 01:08:41;;;;;;;0.80;0.73;;;8.70;69.00;;;;;;5135029;27;20083;-72
2023/04/15 01:11:08;;;;;;;0.70;0.70;;;8.70;69.10;;;;;;5135072;27;20431;-72
2023/04/15 01:13:35;;;;;;;0.70;0.60;;;8.60;69.20;;;;;;5153734;27;20063;-72
2023/04/15 01:16:01;;;;;;;0.82;0.60;;;8.60;69.20;;;;;;5153259;27;20054;-72
2023/04/15 01:18:28;;;;;;;0.68;0.68;;;8.60;69.20;;;;;;5135336;27;20038;-72
2023/04/15 01:20:54;;;;;;;0.60;0.55;;;8.60;69.40;;;;;;5153519;27;20034;-72
2023/04/15 01:23:21;;;;;;;1.05;0.70;;;8.50;69.40;;;;;;5153287;27;20043;-73
2023/04/15 01:25:48;;;;;;;0.52;0.52;;;8.60;69.50;;;;;;5153151;27;20394;-71
2023/04/15 01:28:14;;;;;;;0.55;0.50;;;8.50;69.50;;;;;;5134796;27;20125;-72
2023/04/15 01:30:40;;;;;;;0.93;0.70;;;8.60;69.50;;;;;;5134663;27;20030;-71
2023/04/15 01:33:06;;;;;;;0.68;0.65;;;8.60;69.60;;;;;;5153866;27;20050;-72
2023/04/15 01:35:32;;;;;;;0.60;0.50;;;8.60;69.60;;;;;;5135158;27;20046;-72
2023/04/15 01:38:06;;;;;;;0.70;0.70;;;8.60;69.60;;;;;;5153210;27;20038;-72
2023/04/15 01:40:33;;;;;;;0.60;0.60;;;8.60;69.70;;;;;;5153131;27;20051;-72
2023/04/15 01:42:59;;;;;;;0.82;0.60;;;8.50;69.60;;;;;;5135427;27;20041;-72
2023/04/15 01:45:25;;;;;;;0.60;0.60;;;8.50;69.70;;;;;;5153361;27;20066;-72
2023/04/15 01:47:50;;;;;;;1.38;0.65;;;8.40;69.70;;;;;;5153312;27;20038;-72
2023/04/15 01:50:16;;;;;;;0.52;0.52;;;8.40;69.80;;;;;;5153326;27;20436;-71
2023/04/15 01:52:42;;;;;;;0.65;0.65;;;8.40;69.90;;;;;;5153453;27;20034;-71
2023/04/15 01:55:08;;;;;;;1.00;0.60;;;8.40;70.00;;;;;;5156423;27;20054;-71
2023/04/15 01:57:34;;;;;;;0.70;0.70;;;8.40;70.00;;;;;;5156410;27;20573;-71
2023/04/15 01:59:59;;;;;;;1.25;0.70;;;8.40;70.10;;;;;;5138359;27;20074;-72
2023/04/15 02:02:25;;;;;;;0.70;0.50;;;8.40;70.10;;;;;;5137565;27;20062;-72
2023/04/15 02:04:52;;;;;;;0.93;0.63;;;8.40;70.20;;;;;;5156812;27;20042;-71
2023/04/15 02:07:19;;;;;;;0.50;0.50;;;8.40;70.20;;;;;;5156298;27;20548;-72
2023/04/15 02:09:45;;;;;;;1.10;0.73;;;8.50;70.20;;;;;;5137800;27;20050;-73
2023/04/15 02:12:11;;;;;;;0.70;0.50;;;8.40;70.10;;;;;;5137770;27;20038;-72
2023/04/15 02:14:37;;;;;;;1.40;0.70;;;8.50;70.20;;;;;;5156143;27;20035;-72
2023/04/15 02:17:06;;;;;;;1.23;0.60;;;8.60;70.10;;;;;;5156775;27;20047;-72
2023/04/15 02:19:32;;;;;;;0.70;0.70;;;8.50;70.10;;;;;;5156354;27;20045;-72
2023/04/15 02:22:00;;;;;;;0.80;0.60;;;8.50;70.10;;;;;;5156548;27;20042;-72
2023/04/15 02:24:26;;;;;;;0.85;0.75;;;8.60;70.10;;;;;;5156206;27;20441;-72
2023/04/15 02:26:52;;;;;;;0.55;0.50;;;8.60;70.10;;;;;;5156438;27;20454;-72
2023/04/15 02:29:17;;;;;;;0.95;0.57;;;8.60;70.10;;;;;;5156049;27;20066;-71
2023/04/15 02:31:44;;;;;;;0.93;0.68;;;8.60;70.10;;;;;;5155978;27;20039;-71
2023/04/15 02:34:10;;;;;;;0.85;0.60;;;8.60;70.10;;;;;;5155835;27;20145;-71
2023/04/15 02:36:35;;;;;;;0.85;0.70;;;8.60;70.10;;;;;;5156046;27;20050;-72
2023/04/15 02:39:02;;;;;;;0.93;0.68;;;8.50;70.00;;;;;;5155893;27;20113;-72
2023/04/15 02:41:29;;;;;;;0.70;0.70;;;8.60;70.10;;;;;;5156217;27;20405;-72
2023/04/15 02:43:55;;;;;;;1.10;0.70;;;8.60;70.30;;;;;;5156103;27;20050;-72
2023/04/15 02:46:21;;;;;;;0.70;0.60;;;8.50;70.30;;;;;;5137458;27;20039;-72
2023/04/15 02:48:48;;;;;;;1.60;0.70;;;8.50;70.50;;;;;;5137221;27;20026;-72
2023/04/15 02:51:18;;;;;;;0.65;0.65;;;8.50;70.70;;;;;;5155572;27;20075;-71
2023/04/15 02:53:44;;;;;;;1.08;0.80;;;8.40;70.70;;;;;;5155485;27;20065;-71
2023/04/15 02:56:11;;;;;;;1.10;0.80;;;8.40;70.80;;;;;;5155586;27;20061;-72
2023/04/15 02:58:39;;;;;;;0.68;0.60;;;8.40;70.90;;;;;;5155483;27;20117;-72
2023/04/15 03:01:04;;;;;;;1.35;0.90;;;8.40;70.90;;;;;;5155429;27;20045;-72
2023/04/15 03:03:30;;;;;;;1.55;0.90;;;8.40;71.00;;;;;;5136535;27;20043;-72
2023/04/15 03:05:55;;;;;;;0.60;0.60;;;8.40;71.10;;;;;;5155961;27;20042;-72
2023/04/15 03:08:21;;;;;;;0.85;0.68;;;8.30;71.10;;;;;;5155916;27;20041;-72
2023/04/15 03:10:47;;;;;;;0.65;0.63;;;8.30;71.20;;;;;;5136860;27;20392;-72
2023/04/15 03:13:13;;;;;;;0.50;0.47;;;8.30;71.20;;;;;;5155283;27;20394;-72
2023/04/15 03:15:39;;;;;;;1.05;0.70;;;8.30;71.30;;;;;;5155248;27;20043;-72
2023/04/15 03:18:04;;;;;;;1.38;0.90;;;8.30;71.30;;;;;;5155222;27;20027;-72
2023/04/15 03:20:30;;;;;;;0.77;0.60;;;8.20;71.40;;;;;;5155431;27;20039;-73
2023/04/15 03:22:56;;;;;;;1.20;0.80;;;8.30;71.50;;;;;;5137250;27;20059;-72
2023/04/15 03:25:21;;;;;;;1.27;0.80;;;8.20;71.60;;;;;;5154905;27;20062;-72
2023/04/15 03:27:47;;;;;;;1.10;0.60;;;8.20;71.60;;;;;;5155277;27;20073;-72
2023/04/15 03:30:12;;;;;;;1.23;0.80;;;8.20;71.70;;;;;;5154750;27;20474;-72
2023/04/15 03:32:39;;;;;;;1.27;0.70;;;8.10;71.80;;;;;;5155015;27;20046;-72
2023/04/15 03:35:05;;;;;;;0.98;0.65;;;8.20;71.90;;;;;;5154806;27;20375;-72
2023/04/15 03:37:31;;;;;;;0.98;0.77;;;8.10;71.90;;;;;;5119374;27;20043;-72
2023/04/15 03:39:56;;;;;;;0.90;0.70;;;8.10;72.00;;;;;;5154900;27;20065;-72
2023/04/15 03:42:22;;;;;;;0.80;0.70;;;8.10;72.00;;;;;;5154933;27;20042;-72
2023/04/15 03:44:48;;;;;;;1.52;0.70;;;8.10;72.10;;;;;;5155226;27;20042;-72
2023/04/15 03:47:14;;;;;;;1.13;0.80;;;8.10;72.10;;;;;;5154845;27;20401;-72
2023/04/15 03:49:40;;;;;;;0.60;0.60;;;8.10;72.20;;;;;;5154739;27;20042;-73
2023/04/15 03:52:05;;;;;;;0.95;0.85;;;8.10;72.20;;;;;;5154930;27;20042;-71
2023/04/15 03:54:31;;;;;;;1.33;0.80;;;8.00;72.20;;;;;;5154785;27;20060;-72
2023/04/15 03:56:57;;;;;;;1.60;0.98;;;8.10;72.30;;;;;;5135988;27;20122;-72
2023/04/15 03:59:22;;;;;;;1.17;0.77;;;8.10;72.40;;;;;;5154401;27;20075;-72
2023/04/15 04:01:48;;;;;;;0.77;0.70;;;8.00;72.40;;;;;;5154730;27;20042;-72
2023/04/15 04:04:14;;;;;;;1.20;0.68;;;7.90;72.40;;;;;;5155031;27;20062;-71
2023/04/15 04:06:40;;;;;;;1.50;1.00;;;8.00;72.50;;;;;;5136666;27;20455;-72
2023/04/15 04:09:06;;;;;;;0.60;0.52;;;8.00;72.60;;;;;;5154759;27;20035;-72
2023/04/15 04:11:31;;;;;;;0.93;0.70;;;7.90;72.60;;;;;;5154651;27;20087;-72
2023/04/15 04:13:57;;;;;;;0.85;0.70;;;8.00;72.70;;;;;;5136231;27;20121;-72
2023/04/15 04:16:23;;;;;;;0.77;0.70;;;7.90;72.70;;;;;;5154209;27;20053;-72
2023/04/15 04:18:49;;;;;;;0.88;0.65;;;7.90;72.80;;;;;;5154475;27;20037;-72
2023/04/15 04:21:15;;;;;;;0.60;0.60;;;7.90;72.80;;;;;;5154398;27;20051;-73
2023/04/15 04:23:40;;;;;;;1.08;0.70;;;7.90;72.90;;;;;;5154532;27;20402;-72
2023/04/15 04:26:06;;;;;;;0.60;0.60;;;7.90;73.10;;;;;;5154519;27;20054;-72
2023/04/15 04:28:32;;;;;;;0.82;0.80;;;7.90;73.10;;;;;;5154416;27;20472;-72
2023/04/15 04:30:58;;;;;;;0.70;0.70;;;7.80;73.10;;;;;;5154704;27;20049;-73
2023/04/15 04:33:23;;;;;;;1.20;0.90;;;7.90;73.20;;;;;;5154311;27;20508;-72
2023/04/15 04:35:49;;;;;;;0.60;0.60;;;7.80;73.20;;;;;;5154472;27;20383;-72
2023/04/15 04:38:15;;;;;;;1.13;0.80;;;7.80;73.30;;;;;;5154155;27;20041;-71
2023/04/15 04:40:41;;;;;;;1.10;0.80;;;7.90;73.40;;;;;;5136090;27;20531;-72
2023/04/15 04:43:06;;;;;;;1.48;1.00;;;7.70;73.40;;;;;;5135613;27;20035;-71
2023/04/15 04:45:32;;;;;;;0.88;0.70;;;7.80;73.60;;;;;;5135614;27;20397;-72
2023/04/15 04:47:57;;;;;;;0.85;0.70;;;7.70;73.60;;;;;;5154053;27;20038;-72
2023/04/15 04:50:23;;;;;;;1.40;0.80;;;7.80;73.60;;;;;;5154163;27;20125;-72
2023/04/15 04:52:48;;;;;;;1.00;0.70;;;7.70;73.60;;;;;;5154436;27;20042;-72
2023/04/15 04:55:14;;;;;;;1.02;0.80;;;7.70;73.70;;;;;;5154065;27;20117;-72
2023/04/15 04:57:40;;;;;;;0.80;0.80;;;7.70;73.70;;;;;;5154320;27;20049;-72
2023/04/15 05:00:07;;;;;;;0.85;0.70;;;7.70;73.80;;;;;;5135938;27;20054;-72
2023/04/15 05:02:33;;;;;;;1.65;0.90;;;7.70;73.80;;;;;;5136092;27;20039;-72
2023/04/15 05:04:59;;;;;;;0.98;0.85;;;7.70;73.80;;;;;;5135766;27;20050;-72
2023/04/15 05:07:25;;;;;;;1.13;0.93;;;7.70;74.00;;;;;;5135276;27;20046;-72
2023/04/15 05:09:51;;;;;;;1.33;0.95;;;7.60;74.00;;;;;;5135406;27;20034;-71
2023/04/15 05:12:17;;;;;;;1.23;0.80;;;7.60;74.00;;;;;;5154337;27;20077;-72
2023/04/15 05:14:43;;;;;;;1.92;0.90;;;7.60;74.00;;;;;;5154267;27;20454;-71
2023/04/15 05:17:08;;;;;;;1.25;0.80;;;7.60;74.10;;;;;;5153578;27;20078;-71
2023/04/15 05:19:34;;;;;;;1.98;0.93;;;7.60;74.10;;;;;;5153546;27;20065;-72
2023/04/15 05:22:00;;;;;;;0.80;0.68;;;7.60;74.10;;;;;;5135162;27;20039;-72
2023/04/15 05:24:26;;;;;;;1.00;0.88;;;7.60;74.20;;;;;;5153468;27;20039;-72
2023/04/15 05:26:51;;;;;;;1.25;0.90;;;7.60;74.10;;;;;;5154253;27;20532;-72
2023/04/15 05:29:17;;;;;;;1.42;1.20;;;7.60;74.20;;;;;;5157623;27;20129;-72
2023/04/15 05:31:43;;;;;;;0.93;0.77;;;7.60;74.20;;;;;;5157275;27;20052;-72
2023/04/15 05:34:10;;;;;;;1.02;0.77;;;7.60;74.20;;;;;;5138651;27;20054;-72
2023/04/15 05:36:36;;;;;;;1.25;0.82;;;7.70;74.90;;;;;;5157287;27;20057;-72
2023/04/15 05:39:02;;;;;;;1.98;1.00;;;7.70;74.30;;;;;;5157292;27;20035;-72
2023/04/15 05:41:28;;;;;;;1.60;0.80;;;7.60;74.20;;;;;;5157134;27;20046;-72
2023/04/15 05:43:54;;;;;;;1.75;1.00;;;7.70;74.30;;;;;;5157528;27;20159;-72
2023/04/15 05:46:21;;;;;;;0.93;0.82;;;7.70;75.00;;;;;;5156986;27;20045;-72
2023/04/15 05:48:47;;;;;;;1.00;0.80;;;7.70;74.40;;;;;;5156820;27;20053;-71
2023/04/15 05:51:12;;;;;;;1.52;1.00;;;7.80;74.40;;;;;;5156890;27;20047;-72
2023/04/15 05:53:40;;;;;;;1.08;0.80;;;7.80;74.40;;;;;;5156800;27;20043;-71
2023/04/15 05:56:05;;;;;;;1.00;0.90;;;7.90;74.40;;;;;;5138671;27;20052;-72
2023/04/15 05:58:31;;;;;;;0.85;0.70;;;8.00;74.30;;;;;;5156745;27;20043;-72
2023/04/15 06:00:57;;;;;;;1.40;0.90;;;8.00;74.30;;;;;;5138435;27;20045;-72
2023/04/15 06:03:23;;;;;;;1.35;0.85;;;8.10;74.20;;;;;;5156779;27;20077;-72
2023/04/15 06:05:48;;;;;;;1.40;0.88;;;8.20;74.10;;;;;;5156714;27;20038;-72
2023/04/15 06:08:14;;;;;;;1.45;0.98;;;8.30;74.00;;;;;;5156629;27;20050;-72
2023/04/15 06:10:40;;;;;;;1.60;1.05;;;8.40;73.90;;;;;;5156703;27;20058;-72
2023/04/15 06:13:06;;;;;;;1.10;0.80;;;8.50;73.80;;;;;;5156416;27;20138;-71
2023/04/15 06:15:32;;;;;;;0.90;0.80;;;8.60;73.70;;;;;;5156491;27;20138;-70
2023/04/15 06:17:58;;;;;;;1.38;0.88;;;8.60;73.60;;;;;;5156541;27;20117;-71
2023/04/15 06:20:24;;;;;;;1.27;0.95;;;8.70;73.60;;;;;;5156609;27;20045;-71
2023/04/15 06:22:50;;;;;;;1.45;1.02;;;8.70;73.50;;;;;;5156254;27;20073;-71
2023/04/15 06:25:15;;;;;;;1.92;1.15;;;8.80;73.60;;;;;;5156351;27;20134;-71
2023/04/15 06:27:42;;;;;;;1.75;1.00;;;8.90;74.30;;;;;;5156303;27;20129;-71
2023/04/15 06:30:08;;;;;;;1.15;0.90;;;8.90;73.60;;;;;;5156303;27;20069;-71
2023/04/15 06:32:34;;;;;;;1.42;1.00;;;9.00;73.60;;;;;;5137634;27;20042;-71
2023/04/15 06:35:00;;;;;;;1.05;0.80;;;9.10;73.60;;;;;;5155961;27;20172;-71
2023/04/15 06:37:25;;;;;;;1.92;1.02;;;9.10;73.60;;;;;;5156054;27;20034;-71
2023/04/15 06:39:51;;;;;;;1.00;0.88;;;9.10;73.60;;;;;;5155464;27;20503;-71
2023/04/15 06:42:17;;;;;;;1.20;0.82;;;9.20;73.60;;;;;;5137432;27;20034;-71
2023/04/15 06:44:43;;;;;;;0.88;0.68;;;9.20;73.60;;;;;;5137969;27;20039;-71
2023/04/15 06:47:08;;;;;;;1.77;0.95;;;9.20;73.60;;;;;;5156240;27;20050;-71
2023/04/15 06:49:34;;;;;;;1.17;0.90;;;9.40;73.70;;;;;;5137622;27;20466;-72
2023/04/15 06:52:00;;;;;;;0.85;0.80;;;9.40;73.70;;;;;;5137672;27;20091;-71
2023/04/15 06:54:26;;;;;;;0.95;0.80;;;9.30;73.60;;;;;;5155837;27;20039;-71
2023/04/15 06:56:52;;;;;;;1.42;1.00;;;9.40;73.70;;;;;;5155852;27;20071;-71
2023/04/15 06:59:17;;;;;;;0.82;0.80;;;9.40;73.70;;;;;;5155773;27;20053;-71
2023/04/15 07:01:43;;;;;;;1.33;1.00;;;9.40;73.70;;;;;;5155785;27;20092;-71
2023/04/15 07:04:10;;;;;;;1.25;0.98;;;9.40;73.80;;;;;;5155647;27;20046;-71
2023/04/15 07:06:35;;;;;;;0.77;0.75;;;9.40;73.80;;;;;;5155788;27;20047;-71
2023/04/15 07:09:02;;;;;;;0.90;0.82;;;9.40;73.70;;;;;;5155554;27;20047;-71
2023/04/15 07:11:28;;;;;;;0.90;0.70;;;9.30;73.70;;;;;;5155635;27;20117;-71
2023/04/15 07:13:53;;;;;;;0.82;0.70;;;9.50;73.80;;;;;;5155550;27;20133;-71
2023/04/15 07:16:19;;;;;;;1.42;0.90;;;9.50;73.80;;;;;;5155410;27;20074;-71
2023/04/15 07:18:44;;;;;;;1.95;1.25;;;9.50;73.90;;;;;;5137378;27;20050;-71
2023/04/15 07:21:10;;;;;;;1.02;0.75;;;9.50;73.90;;;;;;5155455;27;20030;-71
2023/04/15 07:23:36;;;;;;;0.80;0.80;;;9.50;73.90;;;;;;5155602;27;20508;-70
2023/04/15 07:26:02;;;;;;;3.17;0.90;;;9.50;74.00;;;;;;5155335;27;20034;-70
2023/04/15 07:28:28;;;;;;;1.90;0.85;;;9.50;74.10;;;;;;5136886;27;20034;-70
2023/04/15 07:30:54;;;;;;;0.85;0.60;;;9.50;74.10;;;;;;5155342;27;20033;-71
2023/04/15 07:33:20;;;;;;;1.33;0.82;;;9.50;74.20;;;;;;5155531;27;20058;-71
2023/04/15 07:35:46;;;;;;;1.02;0.88;;;9.50;74.20;;;;;;5155469;27;20074;-70
2023/04/15 07:38:12;;;;;;;1.45;0.98;;;9.50;74.20;;;;;;5155220;27;20030;-69
2023/04/15 07:40:38;;;;;;;0.95;0.75;;;9.50;74.20;;;;;;5155134;27;20050;-70
2023/04/15 07:43:04;;;;;;;1.17;0.80;;;9.50;74.30;;;;;;5155411;27;20095;-70
2023/04/15 07:45:31;;;;;;;1.33;0.82;;;9.50;74.30;;;;;;5155047;27;20092;-70
2023/04/15 07:47:56;;;;;;;1.50;0.98;;;9.50;74.30;;;;;;5155555;27;20043;-71
2023/04/15 07:50:23;;;;;;;2.15;1.17;;;9.50;74.20;;;;;;5153738;27;20056;-71
2023/04/15 07:52:50;;;;;;;0.75;0.68;;;9.50;74.20;;;;;;5136397;27;20035;-71
2023/04/15 07:55:18;;;;;;;1.40;1.00;;;9.60;74.20;;;;;;5154714;27;20057;-71
2023/04/15 07:57:46;;;;;;;1.20;0.85;;;9.50;74.00;;;;;;5155232;27;20042;-70
2023/04/15 08:00:12;;;;;;;1.25;0.90;;;9.70;74.10;;;;;;5154836;27;20054;-70
2023/04/15 08:02:38;;;;;;;1.58;1.00;;;9.70;73.90;;;;;;5154689;27;20148;-70
2023/04/15 08:05:04;;;;;;;1.42;0.88;;;9.90;73.90;;;;;;5154948;27;20134;-71
2023/04/15 08:07:30;;;;;;;1.45;1.00;;;10.00;73.80;;;;;;5154714;27;20062;-72
2023/04/15 08:09:55;;;;;;;0.98;0.88;;;9.90;73.60;;;;;;5154630;27;20030;-73
2023/04/15 08:12:22;;;;;;;1.70;1.10;;;10.00;73.60;;;;;;5154956;27;20034;-73
2023/04/15 08:21:13;;;;;;;2.42;1.73;;;10.50;73.20;;;;;;5150978;27;20126;-71
2023/04/15 08:23:39;;;;;;;2.53;1.42;;;10.60;73.50;;;;;;5129922;28;20027;-70
2023/04/15 08:26:05;;;;;;;1.17;1.02;;;10.70;73.30;;;;;;5129991;28;20044;-70
2023/04/15 08:28:31;;;;;;;1.70;1.20;;;10.70;73.10;;;;;;5129933;28;20035;-71
2023/04/15 08:30:56;;;;;;;1.25;1.00;;;10.80;73.00;;;;;;5129798;28;20039;-71
2023/04/15 08:33:22;;;;;;;1.38;1.10;;;10.80;72.80;;;;;;5129829;28;20042;-70
2023/04/15 08:35:48;;;;;;;1.33;0.95;;;11.00;72.70;;;;;;5129843;28;20472;-71
2023/04/15 08:38:14;;;;;;;1.00;0.90;;;11.10;72.50;;;;;;5109435;28;20131;-70
2023/04/15 08:40:43;;;;;;;0.77;0.77;;;11.10;72.30;;;;;;5129451;28;20084;-71
2023/04/15 08:43:11;;;;;;;0.60;0.60;;;11.10;72.30;;;;;;5129570;28;20039;-71
2023/04/15 08:45:38;;;;;;;0.88;0.70;;;11.20;72.20;;;;;;5129542;28;20119;-70
2023/04/15 08:48:05;;;;;;;0.77;0.77;;;11.20;72.10;;;;;;5129662;28;20046;-69
2023/04/15 08:50:32;;;;;;;0.93;0.57;;;11.30;71.80;;;;;;5129710;28;20036;-70
2023/04/15 08:52:59;;;;;;;0.75;0.60;;;11.40;72.00;;;;;;5129724;28;20062;-69
2023/04/15 08:55:32;;;;;;;0.77;0.60;;;11.50;71.80;;;;;;5129329;28;20552;-69
2023/04/15 08:57:58;;;;;;;0.70;0.70;;;11.50;71.60;;;;;;5110466;28;20058;-70
2023/04/15 09:00:25;;;;;;;0.50;0.50;;;11.60;71.50;;;;;;5129281;28;20047;-69
2023/04/15 09:02:51;;;;;;;0.95;0.50;;;11.60;71.50;;;;;;5129885;28;20043;-69
2023/04/15 09:05:17;;;;;;;0.60;0.60;;;11.70;71.50;;;;;;5130007;28;20050;-70
2023/04/15 09:07:42;;;;;;;0.60;0.60;;;11.60;71.60;;;;;;5129313;28;20031;-69
2023/04/15 09:10:09;;;;;;;0.55;0.52;;;11.50;71.60;;;;;;5109906;28;20043;-70
2023/04/15 09:12:35;;;;;;;1.15;0.70;;;11.60;71.70;;;;;;5129794;28;20138;-70
2023/04/15 09:15:02;;;;;;;1.33;0.85;;;11.70;71.70;;;;;;5110498;28;20078;-69
2023/04/15 09:17:31;;;;;;;1.02;0.77;;;11.70;71.60;;;;;;5129101;28;20043;-70
2023/04/15 09:20:14;;;;;;;0.77;0.60;;;11.70;71.40;;;;;;5128974;28;20092;-70
2023/04/15 09:22:41;;;;;;;1.02;0.80;;;11.80;71.30;;;;;;5129121;28;20039;-70
2023/04/15 09:25:26;;;;;;;0.98;0.68;;;11.90;71.50;;;;;;5128858;28;20031;-69
2023/04/15 09:27:55;;;;;;;0.90;0.55;;;11.90;71.30;;;;;;5128904;28;20497;-69
2023/04/15 09:30:21;;;;;;;0.68;0.68;;;12.00;71.20;;;;;;5128762;28;20043;-69
2023/04/15 09:32:57;;;;;;;0.75;0.68;;;12.10;71.20;;;;;;5095412;28;20391;-69
2023/04/15 09:35:25;;;;;;;0.60;0.60;;;12.20;71.10;;;;;;5115687;28;20040;-67
2023/04/15 09:37:51;;;;;;;0.65;0.65;;;12.20;71.00;;;;;;5115285;28;20047;-69
2023/04/15 09:40:35;;;;;;;1.20;0.77;;;12.30;70.80;;;;;;5095918;28;20402;-69
2023/04/15 09:43:02;;;;;;;0.80;0.60;;;12.40;70.70;;;;;;5112504;28;20051;-68
2023/04/15 09:45:28;;;;;;;0.82;0.80;;;12.40;70.60;;;;;;5114896;28;20038;-69
2023/04/15 09:47:55;;;;;;;0.95;0.70;;;12.40;70.60;;;;;;5114658;28;20393;-68
2023/04/15 09:50:21;;;;;;;0.88;0.80;;;12.50;70.60;;;;;;5096464;28;20476;-68
2023/04/15 09:52:47;;;;;;;1.00;0.70;;;12.50;70.50;;;;;;5114525;28;20067;-69
2023/04/15 09:55:14;;;;;;;0.93;0.52;;;12.60;70.50;;;;;;5114361;28;20089;-69
2023/04/15 09:57:41;;;;;;;0.63;0.60;;;12.70;70.50;;;;;;5114473;28;20112;-68
2023/04/15 10:00:09;;;;;;;0.90;0.75;;;12.80;70.40;;;;;;5114988;28;20054;-68
2023/04/15 10:02:36;;;;;;;0.52;0.52;;;12.80;70.20;;;;;;5114841;28;20040;-68
2023/04/15 10:05:02;;;;;;;0.60;0.60;;;12.80;70.10;;;;;;5114665;28;20038;-68
2023/04/15 10:07:28;;;;;;;0.98;0.73;;;12.90;70.10;;;;;;5114961;28;20039;-68
2023/04/15 10:09:55;;;;;;;0.60;0.60;;;12.90;70.10;;;;;;5095368;28;20047;-68
2023/04/15 10:12:21;;;;;;;0.70;0.70;;;12.90;70.30;;;;;;5114590;28;20039;-68
2023/04/15 10:14:51;;;;;;;1.10;0.70;;;13.00;70.20;;;;;;5114762;28;20039;-68
2023/04/15 10:17:20;;;;;;;0.93;0.77;;;13.10;70.10;;;;;;5080480;28;20047;-69
2023/04/15 10:19:47;;;;;;;0.70;0.70;;;13.20;70.60;;;;;;5114689;28;20289;-70
2023/04/15 10:22:13;;;;;;;0.70;0.70;;;13.30;69.80;;;;;;5095379;28;20040;-69
2023/04/15 10:24:39;;;;;;;0.80;0.70;;;13.30;69.70;;;;;;5114306;28;20042;-69
2023/04/15 10:27:05;;;;;;;0.60;0.60;;;13.40;69.80;;;;;;5114246;28;20035;-69
2023/04/15 10:29:31;;;;;;;0.88;0.50;;;13.50;69.70;;;;;;5114765;28;20124;-68
2023/04/15 10:31:59;;;;;;;0.82;0.60;;;13.60;69.30;;;;;;5114624;28;20055;-69
2023/04/15 10:34:25;;;;;;;0.70;0.50;;;13.80;69.20;;;;;;5114409;28;20046;-68
2023/04/15 10:36:55;;;;;;;0.40;0.40;;;13.90;68.90;;;;;;5110368;28;20477;-69
2023/04/15 10:39:39;;;;;;;0.60;0.40;;;14.00;68.60;;;;;;5096048;28;20439;-70
2023/04/15 10:42:07;;;;;;;0.50;0.50;;;14.20;68.60;;;;;;5113472;28;20040;-70
2023/04/15 10:44:36;;;;;;;1.15;0.60;;;14.20;68.50;;;;;;5095482;28;20039;-69
2023/04/15 10:47:09;;;;;;;0.40;0.40;;;14.30;68.40;;;;;;5113866;28;20051;-71
2023/04/15 10:49:44;;;;;;;0.35;0.35;;;14.50;68.20;;;;;;5114463;28;20039;-70
2023/04/15 10:52:10;;;;;;;0.30;0.30;;;14.50;67.80;;;;;;5113819;28;20039;-70
2023/04/15 10:54:38;;;;;;;0.70;0.60;;;14.60;68.00;;;;;;5113920;28;20405;-71
2023/04/15 10:57:08;;;;;;;0.50;0.50;;;14.50;67.90;;;;;;5113725;28;20505;-70
2023/04/15 10:59:36;;;;;;;0.40;0.40;;;14.50;68.10;;;;;;5113530;28;20135;-70
2023/04/15 11:02:06;;;;;;;0.55;0.55;;;14.50;68.40;;;;;;5113654;28;20044;-70
2023/04/15 11:05:01;;;;;;;0.40;0.40;;;14.40;68.50;;;;;;5113993;28;20495;-70
2023/04/15 11:07:47;;;;;;;0.68;0.57;;;14.40;68.50;;;;;;5113793;28;20549;-69
2023/04/15 11:10:51;;;;;;;0.65;0.50;;;14.50;68.60;;;;;;5109851;28;20439;-69
2023/04/15 11:13:21;;;;;;;0.43;0.40;;;14.50;68.30;;;;;;5101142;28;20058;-70
2023/04/15 11:15:48;;;;;;;0.53;0.53;;;14.60;68.10;;;;;;5110903;28;20102;-69
2023/04/15 11:18:17;;;;;;;0.60;0.52;;;14.60;68.20;;;;;;5095540;28;20035;-69
2023/04/15 11:20:49;;;;;;;0.70;0.60;;;14.60;67.90;;;;;;5113860;28;20165;-70
2023/04/15 11:23:18;;;;;;;0.80;0.60;;;14.50;68.10;;;;;;5109748;28;20065;-69
2023/04/15 11:25:45;;;;;;;0.68;0.60;;;14.50;69.20;;;;;;5113461;28;20115;-71
2023/04/15 11:28:11;;;;;;;0.60;0.60;;;14.60;68.30;;;;;;5113747;28;20046;-69
2023/04/15 11:30:38;;;;;;;0.50;0.50;;;14.60;67.90;;;;;;5113720;28;20054;-70
2023/04/15 11:33:07;;;;;;;0.43;0.43;;;14.70;67.90;;;;;;5113891;28;20051;-69
2023/04/15 11:35:34;;;;;;;0.50;0.50;;;14.70;67.70;;;;;;5113372;28;20040;-71
2023/04/15 11:38:15;;;;;;;0.50;0.50;;;14.90;67.60;;;;;;5113328;28;20055;-69
2023/04/15 11:40:42;;;;;;;0.40;0.40;;;15.00;67.20;;;;;;5112848;28;20130;-70
2023/04/15 11:43:11;;;;;;;0.95;0.73;;;15.20;66.80;;;;;;5113219;28;20039;-71
2023/04/15 11:45:46;;;;;;;0.98;0.60;;;15.10;66.80;;;;;;5093200;28;20218;-67
2023/04/15 11:48:13;;;;;;;0.40;0.40;;;15.10;67.00;;;;;;5113390;28;20079;-67
2023/04/15 11:50:40;;;;;;;0.40;0.40;;;15.00;67.00;;;;;;5113126;28;20499;-67
2023/04/15 11:53:08;;;;;;;0.50;0.50;;;15.10;67.10;;;;;;5112985;28;20036;-68
2023/04/15 11:55:43;;;;;;;0.98;0.70;;;14.90;66.80;;;;;;5113130;28;20044;-68
2023/04/15 11:58:14;;;;;;;0.60;0.60;;;15.10;66.90;;;;;;5113508;28;20044;-67
2023/04/15 12:00:40;;;;;;;1.55;0.70;;;15.20;66.60;;;;;;5113100;28;20044;-68
2023/04/15 12:03:21;;;;;;;0.60;0.50;;;15.20;66.30;;;;;;5094572;28;20039;-68
2023/04/15 12:06:03;;;;;;;0.50;0.50;;;15.20;66.00;;;;;;5112723;28;20488;-68
2023/04/15 12:08:38;;;;;;;;;;;15.30;65.90;;;;;;5113137;28;20039;-67
2023/04/15 12:11:04;;;;;;;0.50;0.50;;;15.20;66.20;;;;;;5112547;28;19920;-68
2023/04/15 12:13:30;;;;;;;0.40;0.40;;;15.10;66.30;;;;;;5112628;28;20176;-68
2023/04/15 12:15:56;;;;;;;0.68;0.68;;;14.90;66.60;;;;;;5112721;28;20043;-68
2023/04/15 12:18:24;;;;;;;0.57;0.52;;;14.90;66.80;;;;;;5094053;28;20036;-68
2023/04/15 12:20:50;;;;;;;0.47;0.47;;;14.90;66.50;;;;;;5112344;28;20063;-69
2023/04/15 12:23:19;;;;;;;0.57;0.50;;;14.90;66.30;;;;;;5092796;28;20036;-69
2023/04/15 12:25:51;;;;;;;0.50;0.50;;;15.00;66.50;;;;;;5112669;28;20035;-69
2023/04/15 12:28:17;;;;;;;0.40;0.40;;;15.20;66.30;;;;;;5112473;28;20096;-71
2023/04/15 12:30:51;;;;;;;0.70;0.60;;;15.40;65.70;;;;;;5112487;28;20044;-70
2023/04/15 12:33:16;;;;;;;0.82;0.50;;;15.60;65.30;;;;;;5112405;28;20048;-71
2023/04/15 12:35:42;;;;;;;0.60;0.50;;;15.60;64.90;;;;;;5112377;28;20043;-71
2023/04/15 12:38:09;;;;;;;0.43;0.40;;;15.40;65.10;;;;;;5112803;28;20040;-69
2023/04/15 12:40:35;;;;;;;0.60;0.40;;;15.40;65.60;;;;;;5112503;28;20133;-70
2023/04/15 12:43:00;;;;;;;0.30;0.30;;;15.40;65.70;;;;;;5112237;28;20035;-70
2023/04/15 12:45:26;;;;;;;0.52;0.40;;;15.60;65.70;;;;;;5093974;28;20040;-70
2023/04/15 12:47:52;;;;;;;0.35;0.35;;;15.70;65.40;;;;;;5112407;28;20184;-70
2023/04/15 12:50:17;;;;;;;0.70;0.50;;;15.70;65.20;;;;;;5112234;28;20494;-70
2023/04/15 12:52:43;;;;;;;0.40;0.40;;;15.60;65.10;;;;;;5112319;28;20043;-69
2023/04/15 12:55:09;;;;;;;0.57;0.50;;;15.50;65.30;;;;;;5112299;28;20076;-69
2023/04/15 12:57:34;;;;;;;0.60;0.43;;;15.30;65.60;;;;;;5112085;28;20052;-71